createdAt,value
2023-02-03T00:01:24.767Z,9.03
2023-02-03T00:03:52.166Z,10.30
2023-02-03T00:06:19.716Z,10.07
2023-02-03T00:08:47.176Z,9.03
2023-02-03T00:11:14.844Z,8.83
2023-02-03T00:13:42.296Z,10.70
2023-02-03T00:16:09.763Z,9.03
2023-02-03T00:18:37.222Z,9.07
2023-02-03T00:21:04.718Z,7.30
2023-02-03T00:23:32.910Z,10.20
2023-02-03T00:26:10.319Z,9.57
2023-02-03T00:28:38.527Z,9.83
2023-02-03T00:31:06.066Z,8.07
2023-02-03T00:33:34.116Z,10.27
2023-02-03T00:36:06.403Z,9.67
2023-02-03T00:38:33.886Z,8.63
2023-02-03T00:41:01.317Z,9.33
2023-02-03T00:43:29.279Z,9.07
2023-02-03T00:45:56.827Z,7.90
2023-02-03T00:48:24.290Z,8.87
2023-02-03T00:50:51.683Z,8.73
2023-02-03T00:53:19.154Z,7.83
2023-02-03T00:55:46.559Z,8.47
2023-02-03T00:58:13.939Z,9.33
2023-02-03T01:00:41.394Z,10.63
2023-02-03T01:03:08.797Z,8.43
2023-02-03T01:05:36.216Z,8.90
2023-02-03T01:08:03.781Z,9.60
2023-02-03T01:10:32.517Z,6.50
2023-02-03T01:12:59.970Z,8.53
2023-02-03T01:15:28.896Z,6.27
2023-02-03T01:17:56.301Z,6.80
2023-02-03T01:20:24.519Z,9.67
2023-02-03T01:22:52.106Z,8.40
2023-02-03T01:25:19.539Z,9.70
2023-02-03T01:27:47.194Z,6.67
2023-02-03T01:30:14.748Z,7.20
2023-02-03T01:32:42.129Z,8.00
2023-02-03T01:35:09.627Z,7.93
2023-02-03T01:37:37.015Z,4.27
2023-02-03T01:40:05.045Z,7.87
2023-02-03T01:42:34.695Z,8.87
2023-02-03T01:45:02.171Z,7.33
2023-02-03T01:47:38.655Z,4.13
2023-02-03T01:50:09.163Z,7.57
2023-02-03T01:52:37.619Z,7.47
2023-02-03T01:55:06.446Z,7.00
2023-02-03T01:57:37.668Z,7.67
2023-02-03T02:00:06.575Z,4.57
2023-02-03T02:02:41.235Z,7.07
2023-02-03T02:05:29.120Z,6.27
2023-02-03T02:07:57.560Z,6.77
2023-02-03T02:10:25.449Z,7.87
2023-02-03T02:12:55.204Z,6.30
2023-02-03T02:15:28.635Z,4.27
2023-02-03T02:18:17.118Z,6.00
2023-02-03T02:20:54.243Z,6.37
2023-02-03T02:23:21.685Z,5.60
2023-02-03T02:25:56.226Z,6.37
2023-02-03T02:28:23.645Z,5.47
2023-02-03T02:31:11.722Z,5.60
2023-02-03T02:33:42.444Z,6.13
2023-02-03T02:36:19.195Z,6.53
2023-02-03T02:39:03.740Z,6.40
2023-02-03T02:41:37.430Z,5.63
2023-02-03T02:44:09.276Z,7.13
2023-02-03T02:46:48.148Z,5.57
2023-02-03T02:49:18.576Z,7.93
2023-02-03T02:51:48.608Z,1.97
2023-02-03T02:54:19.431Z,6.60
2023-02-03T02:56:49.587Z,8.10
2023-02-03T02:59:17.034Z,6.07
2023-02-03T03:01:44.895Z,8.50
2023-02-03T03:04:14.071Z,4.33
2023-02-03T03:06:48.898Z,9.10
2023-02-03T03:09:20.241Z,8.43
2023-02-03T03:11:52.201Z,8.10
2023-02-03T03:14:21.467Z,8.63
2023-02-03T03:16:55.450Z,6.70
2023-02-03T03:19:25.640Z,8.53
2023-02-03T03:21:55.163Z,8.33
2023-02-03T03:24:25.549Z,7.73
2023-02-03T03:27:02.099Z,9.77
2023-02-03T03:29:29.510Z,12.93
2023-02-03T03:31:57.153Z,12.27
2023-02-03T03:34:24.604Z,7.33
2023-02-03T03:36:58.664Z,7.03
2023-02-03T03:39:35.002Z,9.53
2023-02-03T03:42:25.715Z,6.93
2023-02-03T03:45:22.417Z,12.23
2023-02-03T03:47:58.535Z,8.73
2023-02-03T03:50:46.220Z,9.30
2023-02-03T03:53:15.328Z,10.37
2023-02-03T03:55:44.303Z,9.13
2023-02-03T03:58:14.020Z,8.13
2023-02-03T04:00:42.560Z,4.73
2023-02-03T04:03:14.968Z,10.23
2023-02-03T04:05:42.526Z,7.63
2023-02-03T04:08:10.300Z,7.57
2023-02-03T04:10:39.143Z,9.50
2023-02-03T04:13:07.164Z,6.87
2023-02-03T04:15:34.848Z,8.70
2023-02-03T04:18:02.639Z,7.87
2023-02-03T04:20:31.040Z,9.10
2023-02-03T04:22:58.626Z,9.07
2023-02-03T04:25:26.627Z,6.33
2023-02-03T04:27:54.075Z,9.73
2023-02-03T04:30:21.645Z,9.73
2023-02-03T04:32:49.375Z,7.73
2023-02-03T04:35:16.873Z,9.73
2023-02-03T04:37:44.422Z,8.67
2023-02-03T04:40:12.145Z,7.43
2023-02-03T04:42:39.893Z,9.63
2023-02-03T04:45:08.512Z,6.33
2023-02-03T04:47:36.258Z,8.50
2023-02-03T04:50:03.766Z,8.87
2023-02-03T04:52:31.208Z,8.03
2023-02-03T04:54:58.853Z,8.00
2023-02-03T04:57:26.239Z,5.37
2023-02-03T04:59:53.649Z,7.23
2023-02-03T05:02:21.021Z,8.80
2023-02-03T05:04:48.461Z,9.63
2023-02-03T05:07:15.868Z,8.20
2023-02-03T05:09:43.335Z,9.30
2023-02-03T05:12:10.765Z,3.60
2023-02-03T05:14:38.238Z,4.23
2023-02-03T05:17:06.747Z,16.00
2023-02-03T05:19:34.177Z,5.77
2023-02-03T05:22:01.573Z,9.03
2023-02-03T05:24:28.970Z,8.07
2023-02-03T05:26:56.377Z,9.87
2023-02-03T05:29:23.862Z,8.27
2023-02-03T05:31:51.295Z,8.43
2023-02-03T05:34:18.721Z,8.57
2023-02-03T05:36:46.240Z,6.30
2023-02-03T05:39:13.709Z,7.43
2023-02-03T05:41:53.329Z,7.90
2023-02-03T05:44:21.947Z,7.73
2023-02-03T05:46:49.404Z,7.87
2023-02-03T05:49:16.807Z,7.37
2023-02-03T05:51:44.278Z,6.30
2023-02-03T05:54:11.719Z,7.23
2023-02-03T05:56:39.694Z,10.70
2023-02-03T05:59:07.223Z,12.07
2023-02-03T06:01:35.107Z,10.80
2023-02-03T06:04:02.820Z,8.40
2023-02-03T06:06:33.979Z,8.13
2023-02-03T06:09:10.655Z,10.27
2023-02-03T06:11:38.123Z,5.23
2023-02-03T06:14:05.666Z,10.23
2023-02-03T06:16:33.265Z,10.87
2023-02-03T06:19:02.116Z,17.20
2023-02-03T06:21:29.919Z,10.20
2023-02-03T06:23:57.397Z,12.83
2023-02-03T06:26:25.540Z,4.77
2023-02-03T06:28:53.137Z,8.77
2023-02-03T06:31:20.759Z,10.03
2023-02-03T06:33:48.372Z,9.20
2023-02-03T06:36:15.828Z,7.63
2023-02-03T06:38:43.270Z,10.50
2023-02-03T06:41:10.671Z,4.93
2023-02-03T06:43:38.055Z,5.77
2023-02-03T06:46:05.559Z,5.60
2023-02-03T06:48:32.988Z,5.00
2023-02-03T06:51:00.385Z,7.03
2023-02-03T06:53:27.817Z,3.07
2023-02-03T06:55:55.268Z,6.60
2023-02-03T06:58:22.679Z,4.60
2023-02-03T07:00:51.538Z,6.10
2023-02-03T07:03:19.172Z,2.40
2023-02-03T07:05:46.587Z,3.70
2023-02-03T07:08:13.972Z,7.33
2023-02-03T07:10:42.009Z,4.30
2023-02-03T07:13:09.646Z,4.40
2023-02-03T07:15:37.173Z,5.30
2023-02-03T07:18:07.160Z,4.40
2023-02-03T07:20:34.547Z,3.87
2023-02-03T07:23:02.089Z,5.13
2023-02-03T07:25:32.345Z,4.40
2023-02-03T07:27:59.804Z,4.60
2023-02-03T07:30:27.609Z,4.50
2023-02-03T07:32:57.483Z,4.40
2023-02-03T07:35:25.551Z,5.27
2023-02-03T07:37:52.962Z,4.13
2023-02-03T07:40:21.108Z,5.60
2023-02-03T07:42:50.160Z,4.23
2023-02-03T07:45:18.102Z,4.57
2023-02-03T07:47:48.000Z,5.10
2023-02-03T07:50:15.400Z,5.00
2023-02-03T07:52:42.839Z,4.43
2023-02-03T07:55:12.761Z,2.13
2023-02-03T07:57:43.603Z,3.33
2023-02-03T08:00:12.453Z,4.67
2023-02-03T08:02:40.336Z,3.70
2023-02-03T08:05:08.030Z,3.83
2023-02-03T08:07:35.493Z,6.87
2023-02-03T08:10:03.010Z,2.77
2023-02-03T08:12:30.411Z,4.70
2023-02-03T08:14:57.813Z,4.10
2023-02-03T08:17:25.328Z,3.80
2023-02-03T08:19:52.740Z,4.03
2023-02-03T08:22:20.208Z,4.87
2023-02-03T08:24:47.959Z,4.70
2023-02-03T08:27:21.472Z,3.93
2023-02-03T08:29:49.215Z,5.90
2023-02-03T08:32:21.774Z,3.50
2023-02-03T08:34:50.240Z,4.07
2023-02-03T08:37:18.583Z,5.33
2023-02-03T08:39:46.027Z,5.90
2023-02-03T08:42:13.536Z,5.80
2023-02-03T08:44:41.452Z,4.33
2023-02-03T08:47:08.923Z,4.50
2023-02-03T08:49:39.393Z,6.90
2023-02-03T08:52:07.532Z,5.23
2023-02-03T08:54:35.004Z,6.53
2023-02-03T08:57:02.457Z,6.57
2023-02-03T08:59:31.121Z,5.57
2023-02-03T09:01:59.961Z,3.63
2023-02-03T09:04:27.419Z,2.83
2023-02-03T09:06:55.484Z,5.30
2023-02-03T09:09:23.473Z,5.43
2023-02-03T09:11:50.868Z,5.00
2023-02-03T09:14:18.388Z,5.97
2023-02-03T09:16:45.823Z,5.47
2023-02-03T09:19:13.700Z,5.73
2023-02-03T09:21:43.471Z,5.93
2023-02-03T09:24:11.849Z,3.97
2023-02-03T09:26:39.232Z,4.03
2023-02-03T09:29:08.147Z,5.57
2023-02-03T09:31:35.818Z,3.90
2023-02-03T09:34:03.309Z,5.67
2023-02-03T09:36:33.219Z,3.30
2023-02-03T09:39:00.805Z,4.13
2023-02-03T09:42:03.561Z,4.30
2023-02-03T09:44:30.960Z,6.53
2023-02-03T09:47:01.305Z,5.70
2023-02-03T09:49:36.377Z,5.73
2023-02-03T09:52:05.228Z,3.37
2023-02-03T09:54:43.613Z,2.97
2023-02-03T09:57:17.693Z,5.90
2023-02-03T09:59:45.160Z,5.07
2023-02-03T10:02:31.081Z,3.40
2023-02-03T10:05:11.217Z,4.97
2023-02-03T10:07:58.855Z,4.57
2023-02-03T10:10:44.844Z,5.00
2023-02-03T10:13:16.640Z,6.37
2023-02-03T10:16:07.357Z,4.50
2023-02-03T10:18:37.495Z,5.23
2023-02-03T10:21:08.094Z,3.47
2023-02-03T10:23:40.015Z,6.30
2023-02-03T10:26:10.023Z,3.83
2023-02-03T10:28:43.304Z,5.97
2023-02-03T10:31:18.600Z,5.37
2023-02-03T10:33:46.693Z,3.10
2023-02-03T10:36:21.698Z,6.27
2023-02-03T10:38:49.125Z,5.03
2023-02-03T10:41:17.985Z,5.60
2023-02-03T10:43:51.825Z,5.63
2023-02-03T10:46:19.404Z,5.07
2023-02-03T10:48:46.925Z,6.47
2023-02-03T10:51:27.203Z,5.37
2023-02-03T10:53:55.129Z,6.43
2023-02-03T10:56:33.180Z,5.73
2023-02-03T10:59:01.504Z,3.87
2023-02-03T11:01:49.212Z,5.60
2023-02-03T11:04:35.134Z,8.47
2023-02-03T11:07:06.151Z,1.80
2023-02-03T11:09:38.332Z,5.60
2023-02-03T11:12:13.033Z,5.87
2023-02-03T11:14:44.255Z,6.70
2023-02-03T11:17:32.960Z,5.23
2023-02-03T11:20:17.184Z,5.13
2023-02-03T11:22:45.277Z,6.40
2023-02-03T11:25:21.422Z,7.10
2023-02-03T11:27:49.033Z,6.07
2023-02-03T11:30:21.264Z,4.63
2023-02-03T11:32:49.355Z,6.73
2023-02-03T11:35:18.866Z,4.93
2023-02-03T11:37:47.709Z,5.60
2023-02-03T11:40:18.309Z,5.80
2023-02-03T11:42:47.049Z,5.13
2023-02-03T11:45:23.539Z,3.40
2023-02-03T11:47:56.205Z,3.63
2023-02-03T11:50:41.783Z,5.50
2023-02-03T11:53:23.677Z,5.87
2023-02-03T11:56:10.388Z,5.97
2023-02-03T11:58:46.931Z,6.07
2023-02-03T12:01:26.565Z,5.80
2023-02-03T12:03:56.939Z,4.90
2023-02-03T12:06:44.632Z,6.93
2023-02-03T12:09:12.030Z,5.20
2023-02-03T12:11:49.907Z,6.53
2023-02-03T12:14:17.422Z,7.07
2023-02-03T12:16:47.920Z,6.43
2023-02-03T12:19:23.835Z,6.40
2023-02-03T12:21:55.983Z,6.93
2023-02-03T12:24:27.748Z,4.10
2023-02-03T12:27:15.533Z,5.03
2023-02-03T12:29:46.564Z,6.80
2023-02-03T12:32:30.320Z,7.77
2023-02-03T12:35:14.266Z,7.30
2023-02-03T12:37:53.215Z,4.63
2023-02-03T12:40:44.074Z,6.13
2023-02-03T12:43:31.726Z,5.73
2023-02-03T12:46:02.783Z,6.47
2023-02-03T12:48:33.731Z,6.53
2023-02-03T12:51:03.111Z,5.97
2023-02-03T12:53:38.742Z,4.83
2023-02-03T12:56:11.211Z,3.90
2023-02-03T12:59:02.047Z,4.87
2023-02-03T13:01:34.166Z,7.80
2023-02-03T13:04:05.012Z,3.47
2023-02-03T13:06:51.247Z,4.73
2023-02-03T13:09:51.231Z,4.77
2023-02-03T13:12:38.853Z,3.40
2023-02-03T13:15:21.562Z,4.33
2023-02-03T13:17:48.927Z,5.37
2023-02-03T13:20:27.579Z,4.40
2023-02-03T13:22:55.361Z,3.70
2023-02-03T13:25:48.824Z,6.57
2023-02-03T13:28:34.517Z,3.70
2023-02-03T13:31:25.344Z,4.80
2023-02-03T13:34:11.576Z,3.50
2023-02-03T13:36:41.878Z,5.20
2023-02-03T13:39:29.634Z,2.17
2023-02-03T13:42:12.867Z,3.50
2023-02-03T13:44:40.591Z,5.37
2023-02-03T13:47:15.315Z,7.23
2023-02-03T13:49:48.370Z,4.00
2023-02-03T13:52:34.636Z,5.63
2023-02-03T13:55:03.222Z,3.83
2023-02-03T13:57:34.577Z,6.87
2023-02-03T14:00:03.545Z,5.13
2023-02-03T14:02:46.550Z,3.07
2023-02-03T14:05:32.644Z,4.53
2023-02-03T14:08:20.110Z,4.17
2023-02-03T14:10:47.590Z,0.40
2023-02-03T14:13:22.127Z,2.07
2023-02-03T14:16:09.457Z,3.13
2023-02-03T14:18:45.106Z,3.00
2023-02-03T14:21:18.255Z,2.47
2023-02-03T14:24:05.933Z,2.60
2023-02-03T14:26:38.732Z,3.47
2023-02-03T14:29:06.859Z,1.67
2023-02-03T14:31:53.206Z,2.67
2023-02-03T14:34:28.940Z,1.67
2023-02-03T14:36:57.204Z,2.13
2023-02-03T14:39:30.761Z,1.43
2023-02-03T14:42:16.761Z,2.87
2023-02-03T14:44:44.166Z,1.50
2023-02-03T14:47:11.742Z,1.17
2023-02-03T14:49:48.068Z,2.20
2023-02-03T14:52:15.487Z,3.10
2023-02-03T14:54:55.305Z,2.67
2023-02-03T14:57:38.710Z,4.60
2023-02-03T15:00:06.297Z,2.93
2023-02-03T15:02:34.718Z,2.07
2023-02-03T15:05:14.483Z,2.37
2023-02-03T15:07:48.756Z,2.47
2023-02-03T15:10:18.042Z,1.83
2023-02-03T15:12:46.934Z,1.67
2023-02-03T15:15:15.579Z,2.97
2023-02-03T15:17:43.061Z,1.60
2023-02-03T15:20:38.839Z,2.90
2023-02-03T15:23:19.100Z,1.67
2023-02-03T15:25:46.580Z,2.73
2023-02-03T15:28:17.057Z,3.33
2023-02-03T15:30:45.239Z,1.80
2023-02-03T15:33:15.886Z,3.10
2023-02-03T15:35:45.204Z,1.90
2023-02-03T15:38:18.144Z,1.73
2023-02-03T15:40:49.689Z,2.30
2023-02-03T15:43:26.078Z,2.53
2023-02-03T15:45:53.588Z,1.53
2023-02-03T15:48:39.954Z,1.07
2023-02-03T15:51:10.215Z,2.43
2023-02-03T15:53:47.990Z,1.63
2023-02-03T15:56:21.480Z,2.57
2023-02-03T15:58:49.677Z,1.67
2023-02-03T16:01:20.213Z,0.83
2023-02-03T16:03:49.681Z,1.80
2023-02-03T16:06:17.057Z,1.10
2023-02-03T16:08:46.454Z,0.80
2023-02-03T16:11:32.803Z,2.37
2023-02-03T16:14:04.707Z,1.37
2023-02-03T16:16:55.256Z,0.50
2023-02-03T16:19:32.507Z,1.33
2023-02-03T16:22:00.101Z,1.00
2023-02-03T16:24:30.739Z,1.17
2023-02-03T16:27:18.105Z,0.47
2023-02-03T16:30:04.145Z,0.40
2023-02-03T16:32:50.134Z,0.97
2023-02-03T16:35:36.093Z,1.03
2023-02-03T16:38:34.352Z,1.53
2023-02-03T16:41:20.535Z,1.83
2023-02-03T16:44:06.711Z,1.27
2023-02-03T16:46:53.004Z,1.10
2023-02-03T16:49:39.397Z,2.47
2023-02-03T16:52:09.265Z,0.40
2023-02-03T16:54:36.672Z,0.83
2023-02-03T16:57:04.113Z,1.27
2023-02-03T16:59:31.731Z,1.87
2023-02-03T17:01:59.303Z,1.63
2023-02-03T17:04:26.745Z,1.60
2023-02-03T17:06:54.195Z,2.27
2023-02-03T17:09:25.095Z,0.63
2023-02-03T17:11:52.749Z,0.93
2023-02-03T17:14:20.811Z,1.13
2023-02-03T17:16:48.330Z,2.27
2023-02-03T17:19:15.800Z,2.40
2023-02-03T17:21:43.241Z,1.73
2023-02-03T17:24:10.691Z,0.97
2023-02-03T17:26:38.188Z,1.87
2023-02-03T17:29:05.619Z,1.93
2023-02-03T17:31:33.474Z,1.03
2023-02-03T17:34:03.421Z,1.60
2023-02-03T17:36:30.873Z,2.40
2023-02-03T17:55:27.802Z,1.10
2023-02-03T17:57:55.360Z,1.07
2023-02-03T18:00:22.860Z,0.97
2023-02-03T18:02:51.415Z,1.93
2023-02-03T18:05:19.012Z,1.37
2023-02-03T18:10:21.261Z,1.40
2023-02-03T18:12:48.674Z,2.40
2023-02-03T18:15:16.692Z,2.23
2023-02-03T18:17:46.555Z,2.70
2023-02-03T18:20:14.058Z,1.33
2023-02-03T18:22:41.462Z,3.50
2023-02-03T18:25:09.770Z,1.60
2023-02-03T18:27:37.239Z,2.03
2023-02-03T18:30:05.002Z,1.33
2023-02-03T18:32:32.448Z,1.47
2023-02-03T18:35:00.904Z,3.47
2023-02-03T18:37:28.495Z,1.93
2023-02-03T18:39:55.907Z,2.63
2023-02-03T18:42:23.360Z,1.47
2023-02-03T18:44:50.756Z,1.73
2023-02-03T18:47:18.184Z,3.03
2023-02-03T18:49:47.958Z,4.57
2023-02-03T18:52:15.394Z,2.87
2023-02-03T18:54:42.833Z,6.67
2023-02-03T18:57:13.988Z,3.53
2023-02-03T18:59:41.510Z,4.17
2023-02-03T19:02:11.172Z,5.73
2023-02-03T19:04:38.631Z,2.47
2023-02-03T19:07:06.168Z,4.13
2023-02-03T19:09:34.135Z,4.90
2023-02-03T19:12:05.051Z,4.90
2023-02-03T19:14:33.132Z,8.50
2023-02-03T19:17:00.636Z,7.83
2023-02-03T19:19:28.055Z,6.23
2023-02-03T19:21:55.559Z,7.70
2023-02-03T19:24:24.977Z,5.17
2023-02-03T19:26:52.381Z,4.10
2023-02-03T19:29:19.807Z,8.50
2023-02-03T19:31:47.417Z,4.80
2023-02-03T19:34:17.835Z,7.53
2023-02-03T19:36:47.114Z,4.40
2023-02-03T19:39:14.838Z,8.20
2023-02-03T19:41:42.472Z,5.47
2023-02-03T19:44:10.001Z,3.07
2023-02-03T19:46:38.021Z,10.47
2023-02-03T19:49:13.127Z,6.57
2023-02-03T19:51:43.217Z,10.27
2023-02-03T19:54:16.521Z,6.43
2023-02-03T19:56:46.657Z,11.50
2023-02-03T19:59:14.134Z,12.33
2023-02-03T20:01:42.472Z,10.50
2023-02-03T20:04:12.686Z,6.97
2023-02-03T20:06:40.233Z,7.33
2023-02-03T20:09:07.682Z,8.47
2023-02-03T20:11:35.147Z,12.37
2023-02-03T20:14:02.622Z,17.97
2023-02-03T20:16:30.119Z,8.47
2023-02-03T20:18:58.201Z,7.70
2023-02-03T20:21:25.628Z,7.23
2023-02-03T20:23:53.786Z,10.00
2023-02-03T20:26:23.539Z,8.57
2023-02-03T20:28:50.939Z,10.50
2023-02-03T20:31:18.505Z,12.00
2023-02-03T20:33:48.426Z,9.67
2023-02-03T20:36:15.928Z,12.87
2023-02-03T20:38:43.385Z,9.93
2023-02-03T20:41:12.068Z,11.13
2023-02-03T20:43:39.631Z,9.27
2023-02-03T20:46:11.607Z,10.30
2023-02-03T20:48:39.018Z,10.97
2023-02-03T20:51:16.881Z,10.40
2023-02-03T20:53:44.650Z,4.47
2023-02-03T20:56:18.978Z,6.63
2023-02-03T20:58:46.486Z,8.00
2023-02-03T21:01:33.282Z,10.30
2023-02-03T21:04:19.422Z,7.17
2023-02-03T21:06:46.834Z,9.50
2023-02-03T21:09:15.742Z,10.83
2023-02-03T21:11:43.640Z,8.57
2023-02-03T21:14:22.249Z,9.20
2023-02-03T21:16:50.035Z,14.13
2023-02-03T21:19:28.682Z,10.97
2023-02-03T21:21:56.611Z,19.73
2023-02-03T21:24:30.585Z,10.37
2023-02-03T21:26:58.969Z,6.40
2023-02-03T21:29:36.918Z,8.83
2023-02-03T21:32:04.714Z,7.13
2023-02-03T21:34:33.538Z,11.60
2023-02-03T21:37:19.753Z,7.87
2023-02-03T21:39:48.097Z,11.63
2023-02-03T21:42:40.900Z,6.00
2023-02-03T21:45:17.730Z,10.10
2023-02-03T21:47:45.940Z,11.47
2023-02-03T21:50:31.035Z,11.03
2023-02-03T21:53:19.102Z,9.30
2023-02-03T21:55:47.000Z,10.10
2023-02-03T21:58:25.898Z,4.27
2023-02-03T22:00:57.895Z,10.47
2023-02-03T22:03:28.608Z,10.63
2023-02-03T22:06:14.743Z,11.00
2023-02-03T22:08:43.828Z,6.30
2023-02-03T22:11:11.727Z,13.67
2023-02-03T22:13:39.307Z,8.57
2023-02-03T22:16:08.009Z,11.53
2023-02-03T22:18:36.687Z,9.37
2023-02-03T22:21:04.432Z,9.37
2023-02-03T22:23:32.956Z,12.10
2023-02-03T22:26:02.290Z,9.57
2023-02-03T22:28:31.125Z,10.13
2023-02-03T22:31:04.871Z,13.27
2023-02-03T22:33:32.830Z,9.77
2023-02-03T22:36:00.343Z,6.33
2023-02-03T22:38:27.837Z,12.23
2023-02-03T22:40:55.241Z,10.13
2023-02-03T22:43:22.630Z,11.13
2023-02-03T22:45:50.073Z,7.30
2023-02-03T22:48:17.471Z,11.80
2023-02-03T22:50:44.896Z,10.37
2023-02-03T22:53:12.323Z,10.67
2023-02-03T22:55:40.126Z,7.77
2023-02-03T22:58:08.179Z,10.43
2023-02-03T23:00:35.913Z,8.70
2023-02-03T23:03:04.239Z,10.83
2023-02-03T23:05:31.684Z,8.07
2023-02-03T23:07:59.082Z,11.43
2023-02-03T23:10:30.869Z,11.30
2023-02-03T23:13:00.638Z,9.77
2023-02-03T23:15:28.853Z,9.80
2023-02-03T23:17:56.383Z,9.90
2023-02-03T23:20:23.803Z,8.97
2023-02-03T23:22:51.254Z,10.37
2023-02-03T23:25:18.659Z,12.30
2023-02-03T23:27:46.195Z,10.60
2023-02-03T23:30:14.288Z,7.97
2023-02-03T23:32:41.776Z,12.37
2023-02-03T23:35:28.481Z,7.80
2023-02-03T23:37:55.890Z,7.27
2023-02-03T23:40:23.363Z,10.23
2023-02-03T23:42:50.914Z,9.37
2023-02-03T23:45:18.442Z,9.67
2023-02-03T23:47:46.520Z,11.13
2023-02-03T23:50:19.033Z,12.80
2023-02-03T23:52:46.736Z,8.23
2023-02-03T23:55:15.599Z,11.53
2023-02-03T23:57:43.258Z,12.03
